sensor_id;sensor_type;location;lat;lon;timestamp;temperature;humidity
17252;DHT22;8742;51.716;8.790;2023-12-29T00:00:48;9.80;99.90
17252;DHT22;8742;51.716;8.790;2023-12-29T00:03:14;9.80;99.90
17252;DHT22;8742;51.716;8.790;2023-12-29T00:05:43;9.80;99.90
17252;DHT22;8742;51.716;8.790;2023-12-29T00:08:10;9.90;99.90
17252;DHT22;8742;51.716;8.790;2023-12-29T00:10:36;9.90;99.90
17252;DHT22;8742;51.716;8.790;2023-12-29T00:13:03;9.90;99.90
17252;DHT22;8742;51.716;8.790;2023-12-29T00:15:30;10.00;99.90
17252;DHT22;8742;51.716;8.790;2023-12-29T00:17:57;10.00;99.90
17252;DHT22;8742;51.716;8.790;2023-12-29T00:20:24;10.00;99.90
17252;DHT22;8742;51.716;8.790;2023-12-29T00:22:52;10.00;99.90
17252;DHT22;8742;51.716;8.790;2023-12-29T00:25:23;10.00;99.90
17252;DHT22;8742;51.716;8.790;2023-12-29T00:27:50;10.00;99.90
17252;DHT22;8742;51.716;8.790;2023-12-29T00:30:17;10.10;99.90
17252;DHT22;8742;51.716;8.790;2023-12-29T00:32:44;10.10;99.90
17252;DHT22;8742;51.716;8.790;2023-12-29T00:35:11;10.10;99.90
17252;DHT22;8742;51.716;8.790;2023-12-29T00:37:38;10.20;99.90
17252;DHT22;8742;51.716;8.790;2023-12-29T00:40:08;10.20;99.90
17252;DHT22;8742;51.716;8.790;2023-12-29T00:42:35;10.20;99.90
17252;DHT22;8742;51.716;8.790;2023-12-29T00:45:02;10.20;99.90
17252;DHT22;8742;51.716;8.790;2023-12-29T00:47:30;10.30;99.90
17252;DHT22;8742;51.716;8.790;2023-12-29T00:49:56;10.30;99.90
17252;DHT22;8742;51.716;8.790;2023-12-29T00:52:23;10.30;99.90
17252;DHT22;8742;51.716;8.790;2023-12-29T00:54:50;10.30;99.90
17252;DHT22;8742;51.716;8.790;2023-12-29T00:57:18;10.30;99.90
17252;DHT22;8742;51.716;8.790;2023-12-29T00:59:47;10.40;99.90
17252;DHT22;8742;51.716;8.790;2023-12-29T01:02:13;10.40;99.90
17252;DHT22;8742;51.716;8.790;2023-12-29T01:04:40;10.30;99.90
17252;DHT22;8742;51.716;8.790;2023-12-29T01:07:07;10.40;99.90
17252;DHT22;8742;51.716;8.790;2023-12-29T01:09:37;10.30;99.90
17252;DHT22;8742;51.716;8.790;2023-12-29T01:12:05;10.30;99.90
17252;DHT22;8742;51.716;8.790;2023-12-29T01:14:34;10.40;99.90
17252;DHT22;8742;51.716;8.790;2023-12-29T01:17:01;10.40;99.90
17252;DHT22;8742;51.716;8.790;2023-12-29T01:19:28;10.40;99.90
17252;DHT22;8742;51.716;8.790;2023-12-29T01:21:54;10.40;99.90
17252;DHT22;8742;51.716;8.790;2023-12-29T01:24:21;10.40;99.90
17252;DHT22;8742;51.716;8.790;2023-12-29T01:26:48;10.40;99.90
17252;DHT22;8742;51.716;8.790;2023-12-29T01:29:15;10.40;99.90
17252;DHT22;8742;51.716;8.790;2023-12-29T01:31:43;10.50;99.90
17252;DHT22;8742;51.716;8.790;2023-12-29T01:34:10;10.50;99.90
17252;DHT22;8742;51.716;8.790;2023-12-29T01:36:36;10.50;99.90
17252;DHT22;8742;51.716;8.790;2023-12-29T01:39:03;10.50;99.90
17252;DHT22;8742;51.716;8.790;2023-12-29T01:41:30;10.50;99.90
17252;DHT22;8742;51.716;8.790;2023-12-29T01:44:19;10.60;99.90
17252;DHT22;8742;51.716;8.790;2023-12-29T01:46:49;10.60;99.90
17252;DHT22;8742;51.716;8.790;2023-12-29T01:49:18;10.60;99.90
17252;DHT22;8742;51.716;8.790;2023-12-29T01:51:48;10.60;99.90
17252;DHT22;8742;51.716;8.790;2023-12-29T01:54:16;10.60;99.90
17252;DHT22;8742;51.716;8.790;2023-12-29T01:56:44;10.70;99.90
17252;DHT22;8742;51.716;8.790;2023-12-29T01:59:11;10.70;99.90
17252;DHT22;8742;51.716;8.790;2023-12-29T02:01:38;10.70;99.90
17252;DHT22;8742;51.716;8.790;2023-12-29T02:04:07;10.70;99.90
17252;DHT22;8742;51.716;8.790;2023-12-29T02:06:34;10.70;99.90
17252;DHT22;8742;51.716;8.790;2023-12-29T02:09:02;10.70;99.90
17252;DHT22;8742;51.716;8.790;2023-12-29T02:11:29;10.70;99.90
17252;DHT22;8742;51.716;8.790;2023-12-29T02:13:57;10.70;99.90
17252;DHT22;8742;51.716;8.790;2023-12-29T02:16:33;10.80;99.90
17252;DHT22;8742;51.716;8.790;2023-12-29T02:19:08;10.80;99.90
17252;DHT22;8742;51.716;8.790;2023-12-29T02:21:41;10.80;99.90
17252;DHT22;8742;51.716;8.790;2023-12-29T02:24:08;10.80;99.90
17252;DHT22;8742;51.716;8.790;2023-12-29T02:26:36;10.80;99.90
17252;DHT22;8742;51.716;8.790;2023-12-29T02:29:08;10.70;99.90
17252;DHT22;8742;51.716;8.790;2023-12-29T02:31:39;10.70;99.90
17252;DHT22;8742;51.716;8.790;2023-12-29T02:34:08;10.60;99.90
17252;DHT22;8742;51.716;8.790;2023-12-29T02:36:37;10.60;99.90
17252;DHT22;8742;51.716;8.790;2023-12-29T02:39:08;10.60;99.90
17252;DHT22;8742;51.716;8.790;2023-12-29T02:41:37;10.60;99.90
17252;DHT22;8742;51.716;8.790;2023-12-29T02:44:04;10.60;99.90
17252;DHT22;8742;51.716;8.790;2023-12-29T02:46:31;10.60;99.90
17252;DHT22;8742;51.716;8.790;2023-12-29T02:48:58;10.70;99.90
17252;DHT22;8742;51.716;8.790;2023-12-29T02:51:25;10.70;99.90
17252;DHT22;8742;51.716;8.790;2023-12-29T02:53:52;10.70;99.90
17252;DHT22;8742;51.716;8.790;2023-12-29T02:56:19;10.70;99.90
17252;DHT22;8742;51.716;8.790;2023-12-29T02:58:48;10.70;99.90
17252;DHT22;8742;51.716;8.790;2023-12-29T03:01:17;10.70;99.90
17252;DHT22;8742;51.716;8.790;2023-12-29T03:03:43;10.60;99.90
17252;DHT22;8742;51.716;8.790;2023-12-29T03:06:10;10.40;99.90
17252;DHT22;8742;51.716;8.790;2023-12-29T03:08:37;10.20;99.90
17252;DHT22;8742;51.716;8.790;2023-12-29T03:11:05;10.10;99.90
17252;DHT22;8742;51.716;8.790;2023-12-29T03:13:32;9.90;99.90
17252;DHT22;8742;51.716;8.790;2023-12-29T03:16:00;9.80;99.90
17252;DHT22;8742;51.716;8.790;2023-12-29T03:18:27;9.70;99.90
17252;DHT22;8742;51.716;8.790;2023-12-29T03:20:54;9.60;99.90
17252;DHT22;8742;51.716;8.790;2023-12-29T03:23:21;9.50;99.90
17252;DHT22;8742;51.716;8.790;2023-12-29T03:25:48;9.40;99.90
17252;DHT22;8742;51.716;8.790;2023-12-29T03:28:15;9.30;99.90
17252;DHT22;8742;51.716;8.790;2023-12-29T03:30:42;9.20;99.90
17252;DHT22;8742;51.716;8.790;2023-12-29T03:33:10;9.10;99.90
17252;DHT22;8742;51.716;8.790;2023-12-29T03:35:37;9.10;99.90
17252;DHT22;8742;51.716;8.790;2023-12-29T03:38:04;9.00;99.90
17252;DHT22;8742;51.716;8.790;2023-12-29T03:40:30;8.90;99.90
17252;DHT22;8742;51.716;8.790;2023-12-29T03:42:57;8.90;99.90
17252;DHT22;8742;51.716;8.790;2023-12-29T03:45:24;8.80;99.90
17252;DHT22;8742;51.716;8.790;2023-12-29T03:47:51;8.80;99.90
17252;DHT22;8742;51.716;8.790;2023-12-29T03:50:19;8.70;99.90
17252;DHT22;8742;51.716;8.790;2023-12-29T03:52:46;8.70;99.90
17252;DHT22;8742;51.716;8.790;2023-12-29T03:55:13;8.70;99.90
17252;DHT22;8742;51.716;8.790;2023-12-29T03:57:40;8.60;99.90
17252;DHT22;8742;51.716;8.790;2023-12-29T04:00:12;8.60;99.90
17252;DHT22;8742;51.716;8.790;2023-12-29T04:02:39;8.60;99.90
17252;DHT22;8742;51.716;8.790;2023-12-29T04:05:08;8.60;99.90
17252;DHT22;8742;51.716;8.790;2023-12-29T04:07:36;8.60;99.90
17252;DHT22;8742;51.716;8.790;2023-12-29T04:10:03;8.50;99.90
17252;DHT22;8742;51.716;8.790;2023-12-29T04:12:30;8.60;99.90
17252;DHT22;8742;51.716;8.790;2023-12-29T04:14:57;8.60;99.90
17252;DHT22;8742;51.716;8.790;2023-12-29T04:17:24;8.60;99.90
17252;DHT22;8742;51.716;8.790;2023-12-29T04:19:51;8.60;99.90
17252;DHT22;8742;51.716;8.790;2023-12-29T04:22:18;8.60;99.90
17252;DHT22;8742;51.716;8.790;2023-12-29T04:24:46;8.60;99.90
17252;DHT22;8742;51.716;8.790;2023-12-29T04:27:14;8.60;99.90
17252;DHT22;8742;51.716;8.790;2023-12-29T04:29:41;8.60;99.90
17252;DHT22;8742;51.716;8.790;2023-12-29T04:32:07;8.50;99.90
17252;DHT22;8742;51.716;8.790;2023-12-29T04:34:34;8.50;99.90
17252;DHT22;8742;51.716;8.790;2023-12-29T04:37:01;8.50;99.90
17252;DHT22;8742;51.716;8.790;2023-12-29T04:39:28;8.50;99.90
17252;DHT22;8742;51.716;8.790;2023-12-29T04:41:56;8.50;99.90
17252;DHT22;8742;51.716;8.790;2023-12-29T04:44:23;8.50;99.90
17252;DHT22;8742;51.716;8.790;2023-12-29T04:46:50;8.50;99.90
17252;DHT22;8742;51.716;8.790;2023-12-29T04:49:16;8.50;99.90
17252;DHT22;8742;51.716;8.790;2023-12-29T04:51:43;8.50;99.90
17252;DHT22;8742;51.716;8.790;2023-12-29T04:54:10;8.50;99.90
17252;DHT22;8742;51.716;8.790;2023-12-29T04:56:37;8.50;99.90
17252;DHT22;8742;51.716;8.790;2023-12-29T04:59:05;8.60;99.90
17252;DHT22;8742;51.716;8.790;2023-12-29T05:01:35;8.60;99.90
17252;DHT22;8742;51.716;8.790;2023-12-29T05:04:02;8.60;99.90
17252;DHT22;8742;51.716;8.790;2023-12-29T05:06:28;8.60;99.90
17252;DHT22;8742;51.716;8.790;2023-12-29T05:08:55;8.70;99.90
17252;DHT22;8742;51.716;8.790;2023-12-29T05:11:22;8.60;99.90
17252;DHT22;8742;51.716;8.790;2023-12-29T05:13:49;8.60;99.90
17252;DHT22;8742;51.716;8.790;2023-12-29T05:16:17;8.60;99.90
17252;DHT22;8742;51.716;8.790;2023-12-29T05:18:44;8.60;99.90
17252;DHT22;8742;51.716;8.790;2023-12-29T05:21:15;8.60;99.90
17252;DHT22;8742;51.716;8.790;2023-12-29T05:23:43;8.60;99.90
17252;DHT22;8742;51.716;8.790;2023-12-29T05:26:10;8.60;99.90
17252;DHT22;8742;51.716;8.790;2023-12-29T05:28:36;8.60;99.90
17252;DHT22;8742;51.716;8.790;2023-12-29T05:31:03;8.60;99.90
17252;DHT22;8742;51.716;8.790;2023-12-29T05:33:35;8.60;99.90
17252;DHT22;8742;51.716;8.790;2023-12-29T05:36:06;8.60;99.90
17252;DHT22;8742;51.716;8.790;2023-12-29T05:38:34;8.60;99.90
17252;DHT22;8742;51.716;8.790;2023-12-29T05:41:01;8.70;99.90
17252;DHT22;8742;51.716;8.790;2023-12-29T05:43:31;8.70;99.90
17252;DHT22;8742;51.716;8.790;2023-12-29T05:45:58;8.80;99.90
17252;DHT22;8742;51.716;8.790;2023-12-29T05:48:25;8.80;99.90
17252;DHT22;8742;51.716;8.790;2023-12-29T05:50:53;8.90;99.90
17252;DHT22;8742;51.716;8.790;2023-12-29T05:53:20;9.00;99.90
17252;DHT22;8742;51.716;8.790;2023-12-29T05:55:47;9.00;99.90
17252;DHT22;8742;51.716;8.790;2023-12-29T05:58:14;9.10;99.90
17252;DHT22;8742;51.716;8.790;2023-12-29T06:00:41;9.20;99.90
17252;DHT22;8742;51.716;8.790;2023-12-29T06:03:08;9.30;99.90
17252;DHT22;8742;51.716;8.790;2023-12-29T06:05:34;9.30;99.90
17252;DHT22;8742;51.716;8.790;2023-12-29T06:08:03;9.40;99.90
17252;DHT22;8742;51.716;8.790;2023-12-29T06:10:30;9.40;99.90
17252;DHT22;8742;51.716;8.790;2023-12-29T06:12:58;9.50;99.90
17252;DHT22;8742;51.716;8.790;2023-12-29T06:15:24;9.50;99.90
17252;DHT22;8742;51.716;8.790;2023-12-29T06:17:51;9.50;99.90
17252;DHT22;8742;51.716;8.790;2023-12-29T06:20:18;9.60;99.90
17252;DHT22;8742;51.716;8.790;2023-12-29T06:22:46;9.60;99.90
17252;DHT22;8742;51.716;8.790;2023-12-29T06:25:14;9.60;99.90
17252;DHT22;8742;51.716;8.790;2023-12-29T06:27:41;9.60;99.90
17252;DHT22;8742;51.716;8.790;2023-12-29T06:30:09;9.70;99.90
17252;DHT22;8742;51.716;8.790;2023-12-29T06:32:36;9.70;99.90
17252;DHT22;8742;51.716;8.790;2023-12-29T06:35:04;9.60;99.90
17252;DHT22;8742;51.716;8.790;2023-12-29T06:37:31;9.60;99.90
17252;DHT22;8742;51.716;8.790;2023-12-29T06:39:58;9.60;99.90
17252;DHT22;8742;51.716;8.790;2023-12-29T06:42:26;9.50;99.90
17252;DHT22;8742;51.716;8.790;2023-12-29T06:44:53;9.50;99.90
17252;DHT22;8742;51.716;8.790;2023-12-29T06:47:20;9.50;99.90
17252;DHT22;8742;51.716;8.790;2023-12-29T06:49:47;9.40;99.90
17252;DHT22;8742;51.716;8.790;2023-12-29T06:52:14;9.40;99.90
17252;DHT22;8742;51.716;8.790;2023-12-29T06:54:41;9.50;99.90
17252;DHT22;8742;51.716;8.790;2023-12-29T06:57:08;9.50;99.90
17252;DHT22;8742;51.716;8.790;2023-12-29T06:59:36;9.50;99.90
17252;DHT22;8742;51.716;8.790;2023-12-29T07:02:03;9.60;99.90
17252;DHT22;8742;51.716;8.790;2023-12-29T07:04:30;9.60;99.90
17252;DHT22;8742;51.716;8.790;2023-12-29T07:07:00;9.60;99.90
17252;DHT22;8742;51.716;8.790;2023-12-29T07:09:27;9.60;99.90
17252;DHT22;8742;51.716;8.790;2023-12-29T07:11:54;9.60;99.90
17252;DHT22;8742;51.716;8.790;2023-12-29T07:14:20;9.60;99.90
17252;DHT22;8742;51.716;8.790;2023-12-29T07:16:49;9.70;99.90
17252;DHT22;8742;51.716;8.790;2023-12-29T07:19:16;9.70;99.90
17252;DHT22;8742;51.716;8.790;2023-12-29T07:21:42;9.70;99.90
17252;DHT22;8742;51.716;8.790;2023-12-29T07:24:10;9.70;99.90
17252;DHT22;8742;51.716;8.790;2023-12-29T07:26:37;9.80;99.90
17252;DHT22;8742;51.716;8.790;2023-12-29T07:29:04;9.90;99.90
17252;DHT22;8742;51.716;8.790;2023-12-29T07:31:31;9.90;99.90
17252;DHT22;8742;51.716;8.790;2023-12-29T07:34:00;9.90;99.90
17252;DHT22;8742;51.716;8.790;2023-12-29T07:36:27;9.90;99.90
17252;DHT22;8742;51.716;8.790;2023-12-29T07:38:54;9.90;99.90
17252;DHT22;8742;51.716;8.790;2023-12-29T07:41:20;9.90;99.90
17252;DHT22;8742;51.716;8.790;2023-12-29T07:43:47;10.00;99.90
17252;DHT22;8742;51.716;8.790;2023-12-29T07:46:23;10.00;99.90
17252;DHT22;8742;51.716;8.790;2023-12-29T07:48:51;10.10;99.90
17252;DHT22;8742;51.716;8.790;2023-12-29T07:51:19;10.10;99.90
17252;DHT22;8742;51.716;8.790;2023-12-29T07:53:46;10.10;99.90
17252;DHT22;8742;51.716;8.790;2023-12-29T07:56:13;10.10;99.90
17252;DHT22;8742;51.716;8.790;2023-12-29T07:58:39;10.10;99.90
17252;DHT22;8742;51.716;8.790;2023-12-29T08:01:06;10.20;99.90
17252;DHT22;8742;51.716;8.790;2023-12-29T08:03:33;10.20;99.90
17252;DHT22;8742;51.716;8.790;2023-12-29T08:06:01;10.20;99.90
17252;DHT22;8742;51.716;8.790;2023-12-29T08:08:30;10.20;99.90
17252;DHT22;8742;51.716;8.790;2023-12-29T08:10:56;10.30;99.90
17252;DHT22;8742;51.716;8.790;2023-12-29T08:13:23;10.30;99.90
17252;DHT22;8742;51.716;8.790;2023-12-29T08:15:50;10.30;99.90
17252;DHT22;8742;51.716;8.790;2023-12-29T08:18:17;10.30;99.90
17252;DHT22;8742;51.716;8.790;2023-12-29T08:20:44;10.30;99.90
17252;DHT22;8742;51.716;8.790;2023-12-29T08:23:11;10.20;99.90
17252;DHT22;8742;51.716;8.790;2023-12-29T08:25:39;10.20;99.90
17252;DHT22;8742;51.716;8.790;2023-12-29T08:28:07;10.10;99.90
17252;DHT22;8742;51.716;8.790;2023-12-29T08:30:35;10.00;99.90
17252;DHT22;8742;51.716;8.790;2023-12-29T08:33:02;9.90;99.90
17252;DHT22;8742;51.716;8.790;2023-12-29T08:35:29;9.80;99.90
17252;DHT22;8742;51.716;8.790;2023-12-29T08:37:56;9.70;99.90
17252;DHT22;8742;51.716;8.790;2023-12-29T08:40:23;9.50;99.90
17252;DHT22;8742;51.716;8.790;2023-12-29T08:42:51;9.50;99.90
17252;DHT22;8742;51.716;8.790;2023-12-29T08:45:18;9.50;99.90
17252;DHT22;8742;51.716;8.790;2023-12-29T08:47:45;9.40;99.90
17252;DHT22;8742;51.716;8.790;2023-12-29T08:50:12;9.40;99.90
17252;DHT22;8742;51.716;8.790;2023-12-29T08:52:40;9.30;99.90
17252;DHT22;8742;51.716;8.790;2023-12-29T08:55:07;9.30;99.90
17252;DHT22;8742;51.716;8.790;2023-12-29T08:57:35;9.20;99.90
17252;DHT22;8742;51.716;8.790;2023-12-29T09:00:04;9.20;99.90
17252;DHT22;8742;51.716;8.790;2023-12-29T09:02:31;9.10;99.90
17252;DHT22;8742;51.716;8.790;2023-12-29T09:04:58;9.10;99.90
17252;DHT22;8742;51.716;8.790;2023-12-29T09:07:25;9.10;99.90
17252;DHT22;8742;51.716;8.790;2023-12-29T09:09:53;9.10;99.90
17252;DHT22;8742;51.716;8.790;2023-12-29T09:12:20;9.10;99.90
17252;DHT22;8742;51.716;8.790;2023-12-29T09:14:47;9.10;99.90
17252;DHT22;8742;51.716;8.790;2023-12-29T09:17:15;9.10;99.90
17252;DHT22;8742;51.716;8.790;2023-12-29T09:19:42;9.10;99.90
17252;DHT22;8742;51.716;8.790;2023-12-29T09:22:09;9.10;99.90
17252;DHT22;8742;51.716;8.790;2023-12-29T09:24:35;9.10;99.90
17252;DHT22;8742;51.716;8.790;2023-12-29T09:27:03;9.10;99.90
17252;DHT22;8742;51.716;8.790;2023-12-29T09:29:30;9.10;99.90
17252;DHT22;8742;51.716;8.790;2023-12-29T09:31:57;9.10;99.90
17252;DHT22;8742;51.716;8.790;2023-12-29T09:34:25;9.10;99.90
17252;DHT22;8742;51.716;8.790;2023-12-29T09:36:52;9.10;99.90
17252;DHT22;8742;51.716;8.790;2023-12-29T09:39:18;9.20;99.90
17252;DHT22;8742;51.716;8.790;2023-12-29T09:41:46;9.30;99.90
17252;DHT22;8742;51.716;8.790;2023-12-29T09:44:14;9.40;99.90
17252;DHT22;8742;51.716;8.790;2023-12-29T09:46:42;9.40;99.90
17252;DHT22;8742;51.716;8.790;2023-12-29T09:49:09;9.50;99.90
17252;DHT22;8742;51.716;8.790;2023-12-29T09:51:38;9.50;99.90
17252;DHT22;8742;51.716;8.790;2023-12-29T09:54:08;9.40;99.90
17252;DHT22;8742;51.716;8.790;2023-12-29T09:56:36;9.50;99.90
17252;DHT22;8742;51.716;8.790;2023-12-29T09:59:04;9.50;99.90
17252;DHT22;8742;51.716;8.790;2023-12-29T10:01:32;9.50;99.90
17252;DHT22;8742;51.716;8.790;2023-12-29T10:03:59;9.60;99.90
17252;DHT22;8742;51.716;8.790;2023-12-29T10:06:26;9.70;99.90
17252;DHT22;8742;51.716;8.790;2023-12-29T10:08:56;9.70;99.90
17252;DHT22;8742;51.716;8.790;2023-12-29T10:11:24;9.70;99.90
17252;DHT22;8742;51.716;8.790;2023-12-29T10:13:54;9.80;99.90
17252;DHT22;8742;51.716;8.790;2023-12-29T10:16:28;9.80;99.90
17252;DHT22;8742;51.716;8.790;2023-12-29T10:19:03;9.90;99.90
17252;DHT22;8742;51.716;8.790;2023-12-29T10:21:41;9.90;99.90
17252;DHT22;8742;51.716;8.790;2023-12-29T10:24:16;9.90;99.90
17252;DHT22;8742;51.716;8.790;2023-12-29T10:26:44;9.90;99.90
17252;DHT22;8742;51.716;8.790;2023-12-29T10:29:11;9.90;99.90
17252;DHT22;8742;51.716;8.790;2023-12-29T10:31:39;9.90;99.90
17252;DHT22;8742;51.716;8.790;2023-12-29T10:34:19;10.00;99.90
17252;DHT22;8742;51.716;8.790;2023-12-29T10:36:49;10.00;99.90
17252;DHT22;8742;51.716;8.790;2023-12-29T10:39:17;9.90;99.90
17252;DHT22;8742;51.716;8.790;2023-12-29T10:41:44;9.90;99.90
17252;DHT22;8742;51.716;8.790;2023-12-29T10:44:11;10.00;99.90
17252;DHT22;8742;51.716;8.790;2023-12-29T10:46:38;10.00;99.90
17252;DHT22;8742;51.716;8.790;2023-12-29T10:49:08;10.00;99.90
17252;DHT22;8742;51.716;8.790;2023-12-29T10:51:35;10.00;99.90
17252;DHT22;8742;51.716;8.790;2023-12-29T10:54:03;10.00;99.90
17252;DHT22;8742;51.716;8.790;2023-12-29T10:56:32;10.00;99.90
17252;DHT22;8742;51.716;8.790;2023-12-29T10:59:00;10.00;99.90
17252;DHT22;8742;51.716;8.790;2023-12-29T11:01:28;10.00;99.90
17252;DHT22;8742;51.716;8.790;2023-12-29T11:04:01;10.10;99.90
17252;DHT22;8742;51.716;8.790;2023-12-29T11:06:29;10.10;99.90
17252;DHT22;8742;51.716;8.790;2023-12-29T11:09:05;10.20;99.90
17252;DHT22;8742;51.716;8.790;2023-12-29T11:11:34;10.20;99.90
17252;DHT22;8742;51.716;8.790;2023-12-29T11:14:02;10.30;99.90
17252;DHT22;8742;51.716;8.790;2023-12-29T11:16:30;10.30;99.90
17252;DHT22;8742;51.716;8.790;2023-12-29T11:18:58;10.40;99.90
17252;DHT22;8742;51.716;8.790;2023-12-29T11:21:26;10.40;99.90
17252;DHT22;8742;51.716;8.790;2023-12-29T11:23:53;10.40;99.90
17252;DHT22;8742;51.716;8.790;2023-12-29T11:26:20;10.40;99.90
17252;DHT22;8742;51.716;8.790;2023-12-29T11:28:49;10.40;99.90
17252;DHT22;8742;51.716;8.790;2023-12-29T11:31:17;10.40;99.90
17252;DHT22;8742;51.716;8.790;2023-12-29T11:33:50;10.40;99.90
17252;DHT22;8742;51.716;8.790;2023-12-29T11:36:23;10.40;99.90
17252;DHT22;8742;51.716;8.790;2023-12-29T11:38:57;10.30;99.90
17252;DHT22;8742;51.716;8.790;2023-12-29T11:41:30;10.40;99.90
17252;DHT22;8742;51.716;8.790;2023-12-29T11:44:00;10.50;99.90
17252;DHT22;8742;51.716;8.790;2023-12-29T11:46:35;10.60;99.90
17252;DHT22;8742;51.716;8.790;2023-12-29T11:49:02;10.50;99.90
17252;DHT22;8742;51.716;8.790;2023-12-29T11:51:31;10.60;99.90
17252;DHT22;8742;51.716;8.790;2023-12-29T11:53:59;10.60;99.90
17252;DHT22;8742;51.716;8.790;2023-12-29T11:56:37;10.60;99.90
17252;DHT22;8742;51.716;8.790;2023-12-29T11:59:14;10.60;99.90
17252;DHT22;8742;51.716;8.790;2023-12-29T12:01:41;10.70;99.90
17252;DHT22;8742;51.716;8.790;2023-12-29T12:04:34;10.70;99.90
17252;DHT22;8742;51.716;8.790;2023-12-29T12:07:02;10.90;99.90
17252;DHT22;8742;51.716;8.790;2023-12-29T12:09:29;10.90;99.90
17252;DHT22;8742;51.716;8.790;2023-12-29T12:11:56;11.00;99.90
17252;DHT22;8742;51.716;8.790;2023-12-29T12:14:50;11.10;99.90
17252;DHT22;8742;51.716;8.790;2023-12-29T12:17:27;11.10;99.90
17252;DHT22;8742;51.716;8.790;2023-12-29T12:19:57;11.10;99.90
17252;DHT22;8742;51.716;8.790;2023-12-29T12:22:25;11.20;99.90
17252;DHT22;8742;51.716;8.790;2023-12-29T12:24:56;11.20;99.90
17252;DHT22;8742;51.716;8.790;2023-12-29T12:27:23;11.20;99.90
17252;DHT22;8742;51.716;8.790;2023-12-29T12:29:54;11.20;99.90
17252;DHT22;8742;51.716;8.790;2023-12-29T12:32:23;11.20;99.90
17252;DHT22;8742;51.716;8.790;2023-12-29T12:34:50;11.20;99.90
17252;DHT22;8742;51.716;8.790;2023-12-29T12:37:21;11.10;99.90
17252;DHT22;8742;51.716;8.790;2023-12-29T12:39:48;10.80;99.90
17252;DHT22;8742;51.716;8.790;2023-12-29T12:42:16;10.60;99.90
17252;DHT22;8742;51.716;8.790;2023-12-29T12:44:47;10.40;99.90
17252;DHT22;8742;51.716;8.790;2023-12-29T12:47:23;10.30;99.90
17252;DHT22;8742;51.716;8.790;2023-12-29T12:49:51;10.20;99.90
17252;DHT22;8742;51.716;8.790;2023-12-29T12:52:18;10.20;99.90
17252;DHT22;8742;51.716;8.790;2023-12-29T12:54:46;10.30;99.90
17252;DHT22;8742;51.716;8.790;2023-12-29T12:57:18;10.30;99.90
17252;DHT22;8742;51.716;8.790;2023-12-29T12:59:46;10.30;99.90
17252;DHT22;8742;51.716;8.790;2023-12-29T13:02:13;10.40;99.90
17252;DHT22;8742;51.716;8.790;2023-12-29T13:04:42;10.40;99.90
17252;DHT22;8742;51.716;8.790;2023-12-29T13:07:09;10.50;99.90
17252;DHT22;8742;51.716;8.790;2023-12-29T13:09:36;10.50;99.90
17252;DHT22;8742;51.716;8.790;2023-12-29T13:12:10;10.50;99.90
17252;DHT22;8742;51.716;8.790;2023-12-29T13:14:38;10.60;99.90
17252;DHT22;8742;51.716;8.790;2023-12-29T13:17:08;10.60;99.90
17252;DHT22;8742;51.716;8.790;2023-12-29T13:19:36;10.60;99.90
17252;DHT22;8742;51.716;8.790;2023-12-29T13:22:07;10.60;99.90
17252;DHT22;8742;51.716;8.790;2023-12-29T13:24:35;10.60;99.90
17252;DHT22;8742;51.716;8.790;2023-12-29T13:27:04;10.60;99.90
17252;DHT22;8742;51.716;8.790;2023-12-29T13:29:34;10.70;99.90
17252;DHT22;8742;51.716;8.790;2023-12-29T13:32:05;10.70;99.90
17252;DHT22;8742;51.716;8.790;2023-12-29T13:34:39;10.70;99.90
17252;DHT22;8742;51.716;8.790;2023-12-29T13:37:16;10.70;99.90
17252;DHT22;8742;51.716;8.790;2023-12-29T13:39:49;10.70;99.90
17252;DHT22;8742;51.716;8.790;2023-12-29T13:42:18;10.70;99.90
17252;DHT22;8742;51.716;8.790;2023-12-29T13:44:46;10.70;99.90
17252;DHT22;8742;51.716;8.790;2023-12-29T13:47:14;10.70;99.90
17252;DHT22;8742;51.716;8.790;2023-12-29T13:49:42;10.70;99.90
17252;DHT22;8742;51.716;8.790;2023-12-29T13:52:10;10.70;99.90
17252;DHT22;8742;51.716;8.790;2023-12-29T13:54:41;10.70;99.90
17252;DHT22;8742;51.716;8.790;2023-12-29T13:57:08;10.60;99.90
17252;DHT22;8742;51.716;8.790;2023-12-29T13:59:35;10.60;99.90
17252;DHT22;8742;51.716;8.790;2023-12-29T14:02:19;10.50;99.90
17252;DHT22;8742;51.716;8.790;2023-12-29T14:04:46;10.50;99.90
17252;DHT22;8742;51.716;8.790;2023-12-29T14:07:15;10.50;99.90
17252;DHT22;8742;51.716;8.790;2023-12-29T14:09:46;10.50;99.90
17252;DHT22;8742;51.716;8.790;2023-12-29T14:12:13;10.50;99.90
17252;DHT22;8742;51.716;8.790;2023-12-29T14:14:40;10.40;99.90
17252;DHT22;8742;51.716;8.790;2023-12-29T14:17:07;10.30;99.90
17252;DHT22;8742;51.716;8.790;2023-12-29T14:19:36;10.10;99.90
17252;DHT22;8742;51.716;8.790;2023-12-29T14:22:04;10.00;99.90
17252;DHT22;8742;51.716;8.790;2023-12-29T14:24:32;9.80;99.90
17252;DHT22;8742;51.716;8.790;2023-12-29T14:26:59;9.70;99.90
17252;DHT22;8742;51.716;8.790;2023-12-29T14:29:28;9.60;99.90
17252;DHT22;8742;51.716;8.790;2023-12-29T14:31:55;9.50;99.90
17252;DHT22;8742;51.716;8.790;2023-12-29T14:34:22;9.50;99.90
17252;DHT22;8742;51.716;8.790;2023-12-29T14:36:49;9.40;99.90
17252;DHT22;8742;51.716;8.790;2023-12-29T14:39:16;9.30;99.90
17252;DHT22;8742;51.716;8.790;2023-12-29T14:41:44;9.20;99.90
17252;DHT22;8742;51.716;8.790;2023-12-29T14:44:12;9.10;99.90
17252;DHT22;8742;51.716;8.790;2023-12-29T14:46:39;9.10;99.90
17252;DHT22;8742;51.716;8.790;2023-12-29T14:49:06;9.00;99.90
17252;DHT22;8742;51.716;8.790;2023-12-29T14:51:33;8.90;99.90
17252;DHT22;8742;51.716;8.790;2023-12-29T14:54:00;8.90;99.90
17252;DHT22;8742;51.716;8.790;2023-12-29T14:56:28;8.80;99.90
17252;DHT22;8742;51.716;8.790;2023-12-29T14:58:57;8.70;99.90
17252;DHT22;8742;51.716;8.790;2023-12-29T15:01:24;8.60;99.90
17252;DHT22;8742;51.716;8.790;2023-12-29T15:03:52;8.50;99.90
17252;DHT22;8742;51.716;8.790;2023-12-29T15:06:18;8.50;99.90
17252;DHT22;8742;51.716;8.790;2023-12-29T15:08:45;8.50;99.90
17252;DHT22;8742;51.716;8.790;2023-12-29T15:11:12;8.40;99.90
17252;DHT22;8742;51.716;8.790;2023-12-29T15:13:39;8.40;99.90
17252;DHT22;8742;51.716;8.790;2023-12-29T15:16:07;8.30;99.90
17252;DHT22;8742;51.716;8.790;2023-12-29T15:18:35;8.30;99.90
17252;DHT22;8742;51.716;8.790;2023-12-29T15:21:02;8.30;99.90
17252;DHT22;8742;51.716;8.790;2023-12-29T15:23:29;8.20;99.90
17252;DHT22;8742;51.716;8.790;2023-12-29T15:25:56;8.20;99.90
17252;DHT22;8742;51.716;8.790;2023-12-29T15:28:23;8.20;99.90
17252;DHT22;8742;51.716;8.790;2023-12-29T15:30:50;8.20;99.90
17252;DHT22;8742;51.716;8.790;2023-12-29T15:33:18;8.20;99.90
17252;DHT22;8742;51.716;8.790;2023-12-29T15:35:46;8.10;99.90
17252;DHT22;8742;51.716;8.790;2023-12-29T15:38:12;8.10;99.90
17252;DHT22;8742;51.716;8.790;2023-12-29T15:40:39;8.10;99.90
17252;DHT22;8742;51.716;8.790;2023-12-29T15:43:06;8.10;99.90
17252;DHT22;8742;51.716;8.790;2023-12-29T15:45:34;8.10;99.90
17252;DHT22;8742;51.716;8.790;2023-12-29T15:48:01;8.00;99.90
17252;DHT22;8742;51.716;8.790;2023-12-29T15:50:29;8.00;99.90
17252;DHT22;8742;51.716;8.790;2023-12-29T15:52:56;8.00;99.90
17252;DHT22;8742;51.716;8.790;2023-12-29T15:55:23;8.00;99.90
17252;DHT22;8742;51.716;8.790;2023-12-29T15:57:50;7.90;99.90
17252;DHT22;8742;51.716;8.790;2023-12-29T16:00:17;7.90;99.90